Itororo, Brazil
Current Conditions -  °F | °C
As of 8:00 AM on Sunday 21 Dec 2014 (Local Time) from SBQV Reporting Station
Few Clouds Few Clouds  
Wind Chill: 75°   Ceiling: Unl
Heat Index: 75°   Visibility: 6mi
Dew Point: 66°   Wind: 8mph
Humidity: 73%   Direction: 40°NE
Pressure: 30.15"   Gusts: NA
Location:  15.12°S, 40.07°W
Report Text: SBQV 211100Z 04007KT 010V070 9999 FEW015 24/19 Q1021
Loading
Personal Weather Stations






























Interactive Weather Map New forecast layout! Learn more

10-Day Weather Forecast

Advertisements
Track Severe Weather on mobile